logo
Search for airport 
image banner adimage banner adimage banner ad
image banner ad

SVSU - Sincor

Located in Anzoategui, Venezuela

ICAO - SVSU, IATA -

Data provided by Airmate  

General information

Coordinates: N8°24'16" W65°0'56"
Elevation is 505 feet MSL.
Magnetic variation is -14° East
View others Airports in Zulia

Operational data

Special qualification required
Current time UTC:
Current local time:
Weather at : - ( 0 km )
METAR: UHHH 191513Z 03003MPS 9999 BKN001 SCT033CB 14/14 Q1002 R88/290045 NOSIG RMK QBB050 QFE746/0994
View NOTAMs / SUP AIP / TFR affecting this airport [VIEW]
Communications frequencies: [VIEW]

Runways:

RWY identifierQFULength (ft)Width (ft)SurfaceLDA (ft)
0757°492876ASPH
25237°492876ASPH

Airport contact information

Address: Anzoategui Venezuela

Satellite view of SVSU